createdAt,value
2022-09-11T00:00:25.356Z,15.67
2022-09-11T00:01:25.347Z,15.70
2022-09-11T00:02:25.348Z,15.70
2022-09-11T00:03:25.383Z,15.70
2022-09-11T00:04:25.325Z,15.71
2022-09-11T00:05:25.280Z,15.71
2022-09-11T00:06:29.828Z,15.73
2022-09-11T00:07:25.286Z,15.71
2022-09-11T00:08:25.295Z,15.71
2022-09-11T00:09:25.283Z,15.68
2022-09-11T00:10:25.203Z,15.68
2022-09-11T00:11:25.282Z,15.68
2022-09-11T00:12:25.238Z,15.67
2022-09-11T00:13:25.225Z,15.62
2022-09-11T00:14:25.246Z,15.64
2022-09-11T00:15:25.187Z,15.60
2022-09-11T00:16:25.233Z,15.62
2022-09-11T00:17:25.121Z,15.60
2022-09-11T00:18:25.236Z,15.59
2022-09-11T00:19:25.161Z,15.56
2022-09-11T00:20:25.098Z,15.53
2022-09-11T00:21:25.116Z,15.55
2022-09-11T00:22:25.067Z,15.53
2022-09-11T00:23:25.052Z,15.51
2022-09-11T00:24:25.096Z,15.46
2022-09-11T00:25:25.071Z,15.44
2022-09-11T00:26:25.045Z,15.44
2022-09-11T00:27:25.053Z,15.43
2022-09-11T00:28:25.010Z,15.43
2022-09-11T00:29:25.046Z,15.41
2022-09-11T00:30:24.966Z,15.43
2022-09-11T00:31:25.040Z,15.40
2022-09-11T00:32:24.998Z,15.40
2022-09-11T00:33:25.052Z,15.41
2022-09-11T00:34:24.970Z,15.41
2022-09-11T00:35:24.967Z,15.40
2022-09-11T00:36:24.943Z,15.40
2022-09-11T00:37:24.934Z,15.38
2022-09-11T00:38:24.957Z,15.35
2022-09-11T00:39:24.887Z,15.34
2022-09-11T00:40:24.977Z,15.33
2022-09-11T00:41:24.900Z,15.35
2022-09-11T00:42:24.849Z,15.33
2022-09-11T00:43:24.908Z,15.30
2022-09-11T00:44:24.826Z,15.30
2022-09-11T00:45:24.890Z,15.28
2022-09-11T00:46:24.814Z,15.25
2022-09-11T00:47:24.815Z,15.23
2022-09-11T00:48:24.824Z,15.25
2022-09-11T00:49:24.744Z,15.25
2022-09-11T00:50:24.776Z,15.27
2022-09-11T00:51:24.756Z,15.27
2022-09-11T00:52:24.716Z,15.25
2022-09-11T00:53:24.717Z,15.27
2022-09-11T00:54:24.691Z,15.25
2022-09-11T00:55:24.678Z,15.25
2022-09-11T00:56:24.728Z,15.23
2022-09-11T00:57:24.684Z,15.22
2022-09-11T00:58:24.686Z,15.20
2022-09-11T00:59:24.637Z,15.22
2022-09-11T01:00:24.637Z,15.19
2022-09-11T01:01:24.623Z,15.19
2022-09-11T01:02:27.406Z,15.19
2022-09-11T01:03:24.612Z,15.18
2022-09-11T01:04:24.629Z,15.16
2022-09-11T01:05:24.604Z,15.13
2022-09-11T01:06:24.582Z,15.13
2022-09-11T01:07:24.610Z,15.13
2022-09-11T01:08:24.567Z,15.12
2022-09-11T01:09:24.563Z,15.12
2022-09-11T01:10:24.576Z,15.09
2022-09-11T01:11:24.528Z,15.07
2022-09-11T01:12:24.516Z,15.09
2022-09-11T01:13:24.503Z,15.11
2022-09-11T01:14:24.549Z,15.09
2022-09-11T01:15:24.472Z,15.09
2022-09-11T01:16:24.487Z,15.09
2022-09-11T01:17:24.465Z,15.07
2022-09-11T01:18:24.510Z,15.11
2022-09-11T01:19:24.496Z,15.13
2022-09-11T01:20:24.415Z,15.12
2022-09-11T01:21:24.371Z,15.13
2022-09-11T01:22:24.390Z,15.13
2022-09-11T01:23:24.394Z,15.12
2022-09-11T01:24:24.385Z,15.12
2022-09-11T01:25:24.413Z,15.13
2022-09-11T01:26:24.340Z,15.15
2022-09-11T01:27:24.335Z,15.15
2022-09-11T01:28:24.327Z,15.18
2022-09-11T01:29:24.363Z,15.16
2022-09-11T01:30:24.337Z,15.18
2022-09-11T01:31:24.333Z,15.20
2022-09-11T01:32:24.312Z,15.23
2022-09-11T01:33:24.241Z,15.27
2022-09-11T01:34:24.268Z,15.27
2022-09-11T01:35:24.374Z,15.30
2022-09-11T01:36:24.275Z,15.31
2022-09-11T01:37:24.198Z,15.31
2022-09-11T01:38:24.216Z,15.31
2022-09-11T01:39:24.202Z,15.34
2022-09-11T01:40:24.217Z,15.34
2022-09-11T01:41:24.155Z,15.33
2022-09-11T01:42:24.174Z,15.33
2022-09-11T01:43:24.158Z,15.35
2022-09-11T01:44:24.106Z,15.34
2022-09-11T01:45:24.180Z,15.35
2022-09-11T01:46:24.154Z,15.33
2022-09-11T01:47:24.102Z,15.30
2022-09-11T01:48:24.067Z,15.28
2022-09-11T01:49:24.115Z,15.30
2022-09-11T01:50:24.039Z,15.28
2022-09-11T01:51:24.044Z,15.30
2022-09-11T01:52:24.055Z,15.30
2022-09-11T01:53:24.002Z,15.28
2022-09-11T01:54:24.030Z,15.28
2022-09-11T01:55:23.996Z,15.28
2022-09-11T01:56:23.994Z,15.28
2022-09-11T01:57:23.978Z,15.27
2022-09-11T01:58:23.964Z,15.27
2022-09-11T01:59:23.932Z,15.27
2022-09-11T02:00:23.963Z,15.25
2022-09-11T02:01:23.966Z,15.25
2022-09-11T02:02:23.975Z,15.23
2022-09-11T02:03:23.923Z,15.19
2022-09-11T02:04:23.872Z,15.15
2022-09-11T02:05:23.867Z,15.15
2022-09-11T02:06:23.892Z,15.12
2022-09-11T02:07:23.881Z,15.12
2022-09-11T02:08:23.827Z,15.11
2022-09-11T02:09:23.855Z,15.11
2022-09-11T02:10:23.802Z,15.07
2022-09-11T02:11:23.837Z,15.01
2022-09-11T02:12:23.875Z,15.00
2022-09-11T02:13:27.592Z,15.00
2022-09-11T02:14:23.771Z,15.00
2022-09-11T02:15:23.795Z,15.00
2022-09-11T02:16:23.787Z,14.98
2022-09-11T02:17:23.782Z,14.98
2022-09-11T02:18:23.753Z,15.00
2022-09-11T02:19:23.709Z,14.98
2022-09-11T02:20:23.729Z,14.94
2022-09-11T02:21:23.720Z,14.94
2022-09-11T02:22:23.710Z,14.91
2022-09-11T02:23:23.666Z,14.90
2022-09-11T02:24:23.663Z,14.87
2022-09-11T02:25:23.634Z,14.83
2022-09-11T02:26:23.619Z,14.80
2022-09-11T02:27:23.628Z,14.78
2022-09-11T02:28:23.656Z,14.78
2022-09-11T02:29:23.682Z,14.75
2022-09-11T02:30:23.587Z,14.75
2022-09-11T02:31:23.631Z,14.75
2022-09-11T02:32:23.553Z,14.78
2022-09-11T02:33:23.592Z,14.79
2022-09-11T02:34:23.581Z,14.79
2022-09-11T02:35:23.564Z,14.80
2022-09-11T02:36:23.517Z,14.83
2022-09-11T02:37:23.532Z,14.85
2022-09-11T02:38:23.535Z,14.87
2022-09-11T02:39:23.517Z,14.87
2022-09-11T02:40:23.514Z,14.91
2022-09-11T02:41:23.466Z,14.93
2022-09-11T02:42:23.495Z,14.95
2022-09-11T02:43:23.436Z,14.95
2022-09-11T02:44:23.438Z,14.98
2022-09-11T02:45:23.549Z,15.00
2022-09-11T02:46:23.442Z,15.00
2022-09-11T02:47:23.444Z,15.01
2022-09-11T02:48:23.405Z,14.98
2022-09-11T02:49:23.384Z,14.98
2022-09-11T02:50:23.373Z,15.00
2022-09-11T02:51:23.659Z,15.01
2022-09-11T02:52:23.378Z,15.04
2022-09-11T02:53:23.326Z,15.04
2022-09-11T02:54:23.338Z,15.04
2022-09-11T02:55:23.331Z,15.05
2022-09-11T02:56:23.330Z,15.04
2022-09-11T02:57:23.361Z,15.04
2022-09-11T02:58:23.321Z,15.07
2022-09-11T02:59:23.259Z,15.09
2022-09-11T03:00:23.253Z,15.09
2022-09-11T03:01:23.245Z,15.09
2022-09-11T03:02:23.281Z,15.12
2022-09-11T03:03:23.295Z,15.13
2022-09-11T03:04:23.282Z,15.13
2022-09-11T03:05:23.225Z,15.16
2022-09-11T03:06:23.209Z,15.16
2022-09-11T03:07:23.180Z,15.16
2022-09-11T03:08:23.186Z,15.16
2022-09-11T03:09:23.209Z,15.16
2022-09-11T03:10:23.170Z,15.18
2022-09-11T03:11:23.160Z,15.19
2022-09-11T03:12:23.180Z,15.20
2022-09-11T03:13:23.130Z,15.19
2022-09-11T03:14:23.111Z,15.20
2022-09-11T03:15:23.177Z,15.19
2022-09-11T03:16:23.089Z,15.20
2022-09-11T03:17:23.084Z,15.19
2022-09-11T03:18:23.073Z,15.20
2022-09-11T03:19:23.074Z,15.22
2022-09-11T03:20:23.137Z,15.23
2022-09-11T03:21:23.116Z,15.23
2022-09-11T03:22:23.078Z,15.23
2022-09-11T03:23:22.999Z,15.22
2022-09-11T03:24:23.102Z,15.25
2022-09-11T03:25:23.024Z,15.25
2022-09-11T03:26:22.968Z,15.27
2022-09-11T03:27:23.004Z,15.25
2022-09-11T03:28:22.966Z,15.22
2022-09-11T03:29:22.934Z,15.22
2022-09-11T03:30:22.952Z,15.19
2022-09-11T03:31:23.058Z,15.20
2022-09-11T03:32:22.931Z,15.22
2022-09-11T03:33:22.992Z,15.19
2022-09-11T03:34:22.915Z,15.19
2022-09-11T03:35:22.935Z,15.20
2022-09-11T03:36:22.851Z,15.20
2022-09-11T03:37:22.897Z,15.20
2022-09-11T03:38:22.833Z,15.18
2022-09-11T03:39:22.830Z,15.19
2022-09-11T03:40:22.883Z,15.20
2022-09-11T03:41:22.848Z,15.20
2022-09-11T03:42:22.838Z,15.19
2022-09-11T03:43:22.810Z,15.19
2022-09-11T03:44:22.802Z,15.22
2022-09-11T03:45:22.856Z,15.20
2022-09-11T03:46:22.773Z,15.20
2022-09-11T03:47:22.803Z,15.23
2022-09-11T03:48:22.750Z,15.20
2022-09-11T03:49:22.722Z,15.20
2022-09-11T03:50:22.802Z,15.22
2022-09-11T03:51:22.742Z,15.19
2022-09-11T03:52:22.729Z,15.19
2022-09-11T03:53:22.664Z,15.18
2022-09-11T03:54:22.710Z,15.18
2022-09-11T03:55:22.710Z,15.19
2022-09-11T03:56:22.658Z,15.20
2022-09-11T03:57:22.614Z,15.22
2022-09-11T03:58:22.618Z,15.23
2022-09-11T03:59:22.622Z,15.25
2022-09-11T04:00:22.627Z,15.25
2022-09-11T04:01:22.674Z,15.27
2022-09-11T04:02:22.670Z,15.28
2022-09-11T04:03:22.559Z,15.27
2022-09-11T04:04:22.596Z,15.27
2022-09-11T04:05:22.589Z,15.28
2022-09-11T04:06:22.536Z,15.31
2022-09-11T04:07:22.568Z,15.30
2022-09-11T04:08:22.541Z,15.33
2022-09-11T04:09:22.528Z,15.25
2022-09-11T04:10:22.551Z,15.27
2022-09-11T04:11:22.573Z,15.25
2022-09-11T04:12:22.501Z,15.28
2022-09-11T04:13:22.477Z,15.28
2022-09-11T04:14:22.517Z,15.31
2022-09-11T04:15:22.544Z,15.31
2022-09-11T04:16:22.481Z,15.31
2022-09-11T04:17:22.455Z,15.34
2022-09-11T04:18:22.503Z,15.34
2022-09-11T04:19:22.401Z,15.34
2022-09-11T04:20:22.443Z,15.34
2022-09-11T04:21:22.434Z,15.34
2022-09-11T04:22:22.411Z,15.33
2022-09-11T04:23:22.359Z,15.31
2022-09-11T04:24:22.427Z,15.28
2022-09-11T04:25:22.417Z,15.28
2022-09-11T04:26:22.360Z,15.27
2022-09-11T04:27:22.369Z,15.27
2022-09-11T04:28:22.367Z,15.30
2022-09-11T04:29:22.317Z,15.31
2022-09-11T04:30:22.386Z,15.33
2022-09-11T04:31:22.281Z,15.33
2022-09-11T04:32:22.365Z,15.34
2022-09-11T04:33:22.391Z,15.27
2022-09-11T04:34:22.299Z,15.27
2022-09-11T04:35:22.328Z,15.27
2022-09-11T04:36:22.225Z,15.28
2022-09-11T04:37:22.262Z,15.30
2022-09-11T04:38:22.172Z,15.28
2022-09-11T04:39:22.231Z,15.28
2022-09-11T04:40:22.278Z,15.28
2022-09-11T04:41:22.229Z,15.31
2022-09-11T04:42:22.237Z,15.31
2022-09-11T04:43:22.209Z,15.33
2022-09-11T04:44:22.167Z,15.33
2022-09-11T04:45:22.266Z,15.35
2022-09-11T04:46:22.200Z,15.35
2022-09-11T04:47:22.143Z,15.37
2022-09-11T04:48:22.091Z,15.35
2022-09-11T04:49:22.061Z,15.35
2022-09-11T04:50:22.160Z,15.35
2022-09-11T04:51:22.187Z,15.35
2022-09-11T04:52:22.068Z,15.35
2022-09-11T04:53:22.019Z,15.34
2022-09-11T04:54:22.042Z,15.34
2022-09-11T04:55:22.022Z,15.35
2022-09-11T04:56:21.988Z,15.35
2022-09-11T04:57:22.085Z,15.35
2022-09-11T04:58:22.049Z,15.40
2022-09-11T04:59:21.979Z,15.37
2022-09-11T05:00:21.988Z,15.38
2022-09-11T05:01:22.011Z,15.38
2022-09-11T05:02:22.110Z,15.38
2022-09-11T05:03:21.968Z,15.40
2022-09-11T05:04:25.965Z,15.35
2022-09-11T05:05:21.933Z,15.33
2022-09-11T05:06:21.995Z,15.34
2022-09-11T05:07:21.887Z,15.34
2022-09-11T05:08:21.982Z,15.35
2022-09-11T05:09:21.933Z,15.37
2022-09-11T05:10:21.880Z,15.38
2022-09-11T05:11:21.850Z,15.37
2022-09-11T05:12:21.896Z,15.38
2022-09-11T05:13:21.955Z,15.41
2022-09-11T05:14:21.841Z,15.41
2022-09-11T05:15:21.878Z,15.41
2022-09-11T05:16:21.929Z,15.43
2022-09-11T05:17:21.824Z,15.41
2022-09-11T05:18:21.816Z,15.43
2022-09-11T05:19:21.835Z,15.43
2022-09-11T05:20:21.818Z,15.43
2022-09-11T05:21:21.816Z,15.44
2022-09-11T05:22:21.738Z,15.44
2022-09-11T05:23:21.811Z,15.44
2022-09-11T05:24:21.749Z,15.44
2022-09-11T05:25:21.724Z,15.46
2022-09-11T05:26:21.706Z,15.46
2022-09-11T05:27:21.653Z,15.48
2022-09-11T05:28:21.762Z,15.44
2022-09-11T05:29:21.666Z,15.48
2022-09-11T05:30:21.742Z,15.48
2022-09-11T05:31:21.672Z,15.49
2022-09-11T05:32:21.689Z,15.49
2022-09-11T05:33:21.617Z,15.51
2022-09-11T05:34:21.587Z,15.48
2022-09-11T05:35:21.632Z,15.49
2022-09-11T05:36:21.602Z,15.49
2022-09-11T05:37:21.603Z,15.51
2022-09-11T05:38:21.643Z,15.53
2022-09-11T05:39:21.535Z,15.53
2022-09-11T05:40:21.588Z,15.58
2022-09-11T05:41:21.588Z,15.56
2022-09-11T05:42:21.538Z,15.55
2022-09-11T05:43:21.665Z,15.52
2022-09-11T05:44:21.549Z,15.52
2022-09-11T05:45:21.537Z,15.52
2022-09-11T05:46:21.521Z,15.52
2022-09-11T05:47:21.547Z,15.52
2022-09-11T05:48:21.553Z,15.49
2022-09-11T05:49:21.556Z,15.49
2022-09-11T05:50:21.512Z,15.52
2022-09-11T05:51:21.434Z,15.53
2022-09-11T05:52:21.415Z,15.53
2022-09-11T05:53:21.428Z,15.56
2022-09-11T05:54:21.475Z,15.55
2022-09-11T05:55:21.583Z,15.58
2022-09-11T05:56:21.486Z,15.58
2022-09-11T05:57:21.369Z,15.59
2022-09-11T05:58:21.550Z,15.59
2022-09-11T05:59:21.320Z,15.60
2022-09-11T06:00:21.349Z,15.58
2022-09-11T06:01:21.452Z,15.58
2022-09-11T06:02:21.339Z,15.60
2022-09-11T06:03:21.269Z,15.62
2022-09-11T06:04:21.346Z,15.64
2022-09-11T06:05:21.413Z,15.67
2022-09-11T06:06:21.359Z,15.68
2022-09-11T06:07:21.358Z,15.67
2022-09-11T06:08:21.357Z,15.68
2022-09-11T06:09:21.178Z,15.70
2022-09-11T06:10:21.269Z,15.68
2022-09-11T06:11:21.217Z,15.70
2022-09-11T06:12:21.279Z,15.71
2022-09-11T06:13:21.195Z,15.74
2022-09-11T06:14:21.269Z,15.76
2022-09-11T06:15:45.304Z,15.78
2022-09-11T06:16:21.301Z,15.80
2022-09-11T06:17:21.152Z,15.81
2022-09-11T06:18:21.158Z,15.84
2022-09-11T06:19:21.206Z,15.86
2022-09-11T06:20:21.237Z,15.86
2022-09-11T06:21:21.246Z,15.89
2022-09-11T06:22:21.153Z,15.89
2022-09-11T06:23:21.120Z,15.91
2022-09-11T06:24:21.049Z,15.88
2022-09-11T06:25:21.139Z,15.91
2022-09-11T06:26:21.099Z,15.89
2022-09-11T06:27:21.070Z,15.91
2022-09-11T06:28:21.048Z,15.93
2022-09-11T06:29:21.112Z,15.93
2022-09-11T06:30:21.028Z,15.93
2022-09-11T06:31:21.201Z,15.92
2022-09-11T06:32:21.011Z,15.93
2022-09-11T06:33:21.083Z,15.95
2022-09-11T06:34:20.963Z,15.96
2022-09-11T06:35:21.079Z,15.96
2022-09-11T06:36:21.092Z,15.98
2022-09-11T06:37:20.905Z,15.99
2022-09-11T06:38:20.998Z,15.98
2022-09-11T06:39:20.948Z,16.03
2022-09-11T06:40:21.286Z,16.04
2022-09-11T06:41:21.042Z,16.07
2022-09-11T06:42:20.943Z,16.07
2022-09-11T06:43:20.887Z,16.07
2022-09-11T06:44:21.077Z,16.07
2022-09-11T06:45:20.947Z,16.08
2022-09-11T06:46:20.913Z,16.08
2022-09-11T06:47:20.985Z,16.11
2022-09-11T06:48:21.055Z,16.10
2022-09-11T06:49:21.236Z,16.10
2022-09-11T06:50:20.884Z,16.11
2022-09-11T06:51:20.955Z,16.08
2022-09-11T06:52:20.887Z,16.11
2022-09-11T06:53:20.873Z,16.13
2022-09-11T06:54:20.735Z,16.13
2022-09-11T06:55:20.927Z,16.10
2022-09-11T06:56:20.840Z,16.10
2022-09-11T06:57:20.677Z,16.13
2022-09-11T06:58:20.762Z,16.16
2022-09-11T06:59:20.744Z,16.16
2022-09-11T07:00:20.689Z,16.18
2022-09-11T07:01:20.741Z,16.18
2022-09-11T07:02:20.742Z,16.16
2022-09-11T07:03:20.714Z,16.14
2022-09-11T07:04:20.677Z,16.16
2022-09-11T07:05:20.639Z,16.18
2022-09-11T07:06:20.660Z,16.25
2022-09-11T07:07:20.592Z,16.26
2022-09-11T07:08:24.357Z,16.29
2022-09-11T07:09:20.589Z,16.33
2022-09-11T07:10:20.611Z,16.34
2022-09-11T07:11:20.651Z,16.36
2022-09-11T07:12:20.507Z,16.36
2022-09-11T07:13:20.459Z,16.40
2022-09-11T07:14:20.529Z,16.41
2022-09-11T07:15:20.560Z,16.44
2022-09-11T07:16:20.540Z,16.47
2022-09-11T07:17:20.449Z,16.47
2022-09-11T07:18:20.407Z,16.44
2022-09-11T07:19:20.560Z,16.42
2022-09-11T07:20:20.410Z,16.44
2022-09-11T07:21:20.378Z,16.44
2022-09-11T07:22:20.459Z,16.44
2022-09-11T07:23:20.400Z,16.44
2022-09-11T07:24:20.553Z,16.45
2022-09-11T07:25:20.424Z,16.44
2022-09-11T07:26:20.406Z,16.44
2022-09-11T07:27:20.408Z,16.45
2022-09-11T07:28:20.289Z,16.48
2022-09-11T07:29:20.309Z,16.48
2022-09-11T07:30:20.269Z,16.50
2022-09-11T07:31:21.225Z,16.51
2022-09-11T07:32:20.247Z,16.52
2022-09-11T07:33:20.311Z,16.55
2022-09-11T07:34:20.285Z,16.54
2022-09-11T07:35:20.474Z,16.57
2022-09-11T07:36:20.283Z,16.57
2022-09-11T07:37:20.249Z,16.57
2022-09-11T07:38:20.338Z,16.54
2022-09-11T07:39:20.285Z,16.54
2022-09-11T07:40:20.179Z,16.55
2022-09-11T07:41:20.273Z,16.51
2022-09-11T07:42:20.262Z,16.51
2022-09-11T07:43:20.202Z,16.52
2022-09-11T07:44:20.168Z,16.54
2022-09-11T07:45:22.732Z,16.55
2022-09-11T07:46:20.122Z,16.57
2022-09-11T07:47:20.091Z,16.60
2022-09-11T07:48:20.141Z,16.63
2022-09-11T07:49:20.196Z,16.66
2022-09-11T07:50:20.172Z,16.69
2022-09-11T07:51:20.112Z,16.70
2022-09-11T07:52:20.093Z,16.73
2022-09-11T07:53:20.041Z,16.75
2022-09-11T07:54:20.032Z,16.77
2022-09-11T07:55:20.143Z,16.77
2022-09-11T07:56:20.062Z,16.78
2022-09-11T07:57:20.153Z,16.81
2022-09-11T07:58:19.981Z,16.82
2022-09-11T07:59:20.106Z,16.84
2022-09-11T08:00:20.068Z,16.82
2022-09-11T08:01:20.246Z,16.77
2022-09-11T08:02:20.164Z,16.70
2022-09-11T08:03:19.961Z,16.70
2022-09-11T08:04:19.864Z,16.73
2022-09-11T08:05:20.186Z,16.78
2022-09-11T08:06:22.368Z,16.81
2022-09-11T08:07:20.073Z,16.82
2022-09-11T08:08:19.948Z,16.84
2022-09-11T08:09:19.931Z,16.82
2022-09-11T08:10:28.178Z,16.82
2022-09-11T08:11:19.936Z,16.84
2022-09-11T08:12:19.973Z,16.88
2022-09-11T08:13:19.900Z,16.92
2022-09-11T08:14:19.848Z,16.95
2022-09-11T08:15:19.901Z,16.95
2022-09-11T08:16:19.829Z,16.96
2022-09-11T08:17:19.775Z,17.00
2022-09-11T08:18:19.766Z,17.02
2022-09-11T08:19:19.799Z,17.06
2022-09-11T08:20:19.905Z,17.10
2022-09-11T08:21:19.853Z,17.14
2022-09-11T08:22:19.855Z,17.21
2022-09-11T08:23:19.865Z,17.27
2022-09-11T08:24:19.797Z,17.30
2022-09-11T08:25:19.775Z,17.33
2022-09-11T08:26:19.769Z,17.35
2022-09-11T08:27:19.768Z,17.36
2022-09-11T08:28:19.861Z,17.36
2022-09-11T08:29:19.658Z,17.39
2022-09-11T08:30:19.908Z,17.36
2022-09-11T08:31:20.040Z,17.35
2022-09-11T08:32:20.226Z,17.38
2022-09-11T08:33:19.744Z,17.46
2022-09-11T08:34:20.217Z,17.55
2022-09-11T08:35:20.131Z,17.65
2022-09-11T08:36:20.139Z,17.58
2022-09-11T08:37:20.123Z,17.55
2022-09-11T08:38:19.683Z,17.55
2022-09-11T08:39:19.788Z,17.60
2022-09-11T08:40:20.413Z,17.68
2022-09-11T08:41:20.188Z,17.73
2022-09-11T08:42:19.786Z,17.80
2022-09-11T08:43:19.709Z,17.81
2022-09-11T08:44:19.917Z,17.81
2022-09-11T08:45:19.720Z,17.84
2022-09-11T08:46:19.936Z,17.87
2022-09-11T08:47:20.192Z,17.92
2022-09-11T08:48:20.139Z,17.99
2022-09-11T08:49:19.865Z,18.05
2022-09-11T08:50:19.835Z,18.09
2022-09-11T08:51:19.837Z,18.11
2022-09-11T08:52:19.600Z,18.05
2022-09-11T08:53:19.635Z,18.10
2022-09-11T08:54:20.221Z,18.02
2022-09-11T08:56:37.688Z,18.09
2022-09-11T08:58:10.949Z,18.14
2022-09-11T08:59:11.718Z,18.17
2022-09-11T09:00:11.439Z,18.21
2022-09-11T09:01:11.458Z,18.26
2022-09-11T09:02:11.347Z,18.29
2022-09-11T09:03:11.251Z,18.32
2022-09-11T09:04:11.287Z,18.35
2022-09-11T09:05:11.338Z,18.32
2022-09-11T09:06:11.232Z,18.23
2022-09-11T09:07:11.304Z,18.17
2022-09-11T09:08:11.145Z,18.16
2022-09-11T09:09:11.210Z,18.17
2022-09-11T09:10:11.214Z,18.21
2022-09-11T09:11:11.156Z,18.25
2022-09-11T09:12:11.265Z,18.26
2022-09-11T09:13:11.242Z,18.29
2022-09-11T09:14:11.157Z,18.34
2022-09-11T09:15:11.138Z,18.38
2022-09-11T09:16:11.132Z,18.42
2022-09-11T09:17:11.103Z,18.46
2022-09-11T09:18:11.031Z,18.47
2022-09-11T09:19:11.101Z,18.49
2022-09-11T09:20:11.040Z,18.50
2022-09-11T09:21:11.006Z,18.53
2022-09-11T09:22:11.028Z,18.57
2022-09-11T09:23:10.990Z,18.57
2022-09-11T09:24:10.993Z,18.62
2022-09-11T09:25:10.987Z,18.57
2022-09-11T09:26:10.946Z,18.46
2022-09-11T09:27:10.988Z,18.46
2022-09-11T09:28:10.928Z,18.50
2022-09-11T09:29:11.018Z,18.56
2022-09-11T09:30:10.939Z,18.62
2022-09-11T09:31:11.019Z,18.66
2022-09-11T09:32:10.944Z,18.68
2022-09-11T09:33:13.299Z,18.72
2022-09-11T09:34:10.977Z,18.75
2022-09-11T09:35:10.955Z,18.78
2022-09-11T09:36:10.858Z,18.84
2022-09-11T09:37:10.923Z,18.90
2022-09-11T09:38:10.805Z,18.91
2022-09-11T09:39:10.808Z,18.89
2022-09-11T09:40:10.986Z,18.91
2022-09-11T09:41:10.869Z,18.94
2022-09-11T09:42:10.797Z,18.91
2022-09-11T09:43:10.835Z,18.90
2022-09-11T09:44:10.787Z,18.82
2022-09-11T09:45:10.818Z,18.82
2022-09-11T09:46:10.838Z,18.83
2022-09-11T09:47:10.724Z,18.83
2022-09-11T09:48:10.718Z,18.86
2022-09-11T09:49:10.781Z,18.90
2022-09-11T09:50:10.786Z,18.96
2022-09-11T09:51:10.660Z,18.97
2022-09-11T09:52:10.711Z,18.99
2022-09-11T09:53:10.653Z,18.99
2022-09-11T09:54:10.664Z,19.05
2022-09-11T09:55:10.676Z,19.09
2022-09-11T09:56:10.629Z,19.07
2022-09-11T09:57:10.648Z,18.91
2022-09-11T09:58:10.576Z,18.86
2022-09-11T09:59:10.578Z,18.89
2022-09-11T10:00:10.639Z,18.91
2022-09-11T10:01:10.722Z,18.99
2022-09-11T10:02:10.640Z,19.06
2022-09-11T10:03:10.522Z,19.10
2022-09-11T10:04:10.553Z,19.13
2022-09-11T10:05:10.551Z,19.10
2022-09-11T10:06:10.558Z,19.15
2022-09-11T10:07:10.560Z,19.21
2022-09-11T10:08:10.509Z,19.15
2022-09-11T10:09:10.464Z,19.07
2022-09-11T10:10:10.459Z,19.07
2022-09-11T10:11:10.459Z,19.06
2022-09-11T10:12:10.443Z,19.15
2022-09-11T10:13:19.360Z,19.20
2022-09-11T10:14:13.651Z,19.31
2022-09-11T10:15:10.448Z,19.38
2022-09-11T10:16:10.453Z,19.43
2022-09-11T10:17:10.369Z,19.50
2022-09-11T10:18:10.380Z,19.49
2022-09-11T10:19:10.357Z,19.52
2022-09-11T10:20:10.356Z,19.55
2022-09-11T10:21:10.336Z,19.58
2022-09-11T10:22:10.324Z,19.64
2022-09-11T10:23:10.337Z,19.65
2022-09-11T10:24:10.283Z,19.62
2022-09-11T10:25:10.296Z,19.68
2022-09-11T10:26:10.261Z,19.78
2022-09-11T10:27:10.278Z,19.89
2022-09-11T10:28:10.234Z,20.00
2022-09-11T10:29:10.225Z,19.92
2022-09-11T10:30:10.249Z,19.86
2022-09-11T10:31:10.235Z,19.76
2022-09-11T10:32:10.178Z,19.72
2022-09-11T10:33:10.177Z,19.82
2022-09-11T10:34:10.183Z,19.80
2022-09-11T10:35:10.190Z,19.79
2022-09-11T10:36:10.230Z,19.78
2022-09-11T10:37:10.162Z,19.65
2022-09-11T10:38:10.146Z,19.58
2022-09-11T10:39:10.125Z,19.67
2022-09-11T10:40:10.176Z,19.78
2022-09-11T10:41:10.107Z,19.83
2022-09-11T10:42:10.128Z,19.62
2022-09-11T10:43:10.089Z,19.39
2022-09-11T10:44:10.058Z,19.42
2022-09-11T10:45:10.100Z,19.52
2022-09-11T10:46:10.085Z,19.58
2022-09-11T10:47:10.062Z,19.61
2022-09-11T10:48:09.993Z,19.67
2022-09-11T10:49:09.989Z,19.85
2022-09-11T10:50:09.995Z,19.95
2022-09-11T10:51:09.980Z,20.04
2022-09-11T10:52:09.983Z,20.17
2022-09-11T10:53:09.937Z,20.25
2022-09-11T10:54:09.939Z,20.19
2022-09-11T10:55:09.922Z,19.85
2022-09-11T10:56:09.935Z,19.78
2022-09-11T10:57:09.939Z,19.76
2022-09-11T10:58:09.909Z,19.83
2022-09-11T10:59:09.896Z,19.95
2022-09-11T11:00:09.889Z,19.98
2022-09-11T11:01:09.950Z,20.04
2022-09-11T11:02:09.868Z,20.07
2022-09-11T11:03:09.856Z,20.10
2022-09-11T11:04:12.322Z,20.22
2022-09-11T11:05:09.817Z,20.41
2022-09-11T11:06:09.792Z,20.60
2022-09-11T11:07:09.798Z,20.73
2022-09-11T11:08:09.831Z,20.90
2022-09-11T11:09:09.773Z,20.93
2022-09-11T11:10:09.822Z,21.00
2022-09-11T11:11:09.756Z,21.22
2022-09-11T11:12:09.743Z,21.40
2022-09-11T11:13:09.735Z,21.49
2022-09-11T11:14:09.734Z,21.43
2022-09-11T11:15:09.715Z,21.52
2022-09-11T11:16:09.723Z,21.56
2022-09-11T11:17:09.666Z,21.77
2022-09-11T11:18:09.665Z,21.81
2022-09-11T11:19:09.671Z,21.85
2022-09-11T11:20:09.638Z,21.79
2022-09-11T11:21:09.622Z,21.70
2022-09-11T11:22:09.638Z,21.63
2022-09-11T11:23:13.312Z,21.58
2022-09-11T11:24:09.647Z,21.52
2022-09-11T11:25:09.579Z,21.45
2022-09-11T11:26:09.579Z,21.51
2022-09-11T11:27:09.558Z,21.52
2022-09-11T11:28:09.551Z,21.48
2022-09-11T11:29:09.539Z,21.53
2022-09-11T11:30:09.562Z,21.71
2022-09-11T11:31:09.558Z,21.71
2022-09-11T11:32:09.512Z,21.63
2022-09-11T11:33:09.504Z,21.59
2022-09-11T11:34:09.480Z,21.55
2022-09-11T11:35:09.505Z,21.53
2022-09-11T11:36:09.484Z,21.51
2022-09-11T11:37:09.454Z,21.49
2022-09-11T11:38:09.442Z,21.53
2022-09-11T11:39:09.431Z,21.26
2022-09-11T11:40:09.627Z,21.11
2022-09-11T11:41:09.430Z,21.09
2022-09-11T11:42:09.408Z,21.08
2022-09-11T11:43:09.405Z,20.87
2022-09-11T11:44:09.421Z,20.76
2022-09-11T11:45:09.458Z,20.72
2022-09-11T11:46:09.549Z,20.68
2022-09-11T11:47:09.338Z,20.72
2022-09-11T11:48:09.355Z,20.71
2022-09-11T11:49:09.444Z,20.60
2022-09-11T11:50:09.317Z,20.41
2022-09-11T11:51:09.406Z,20.42
2022-09-11T11:52:09.289Z,20.41
2022-09-11T11:53:09.281Z,20.46
2022-09-11T11:54:09.328Z,20.41
2022-09-11T11:55:09.243Z,20.44
2022-09-11T11:56:09.758Z,20.50
2022-09-11T11:57:09.241Z,20.73
2022-09-11T11:58:09.212Z,20.98
2022-09-11T11:59:09.508Z,21.13
2022-09-11T12:00:09.275Z,21.09
2022-09-11T12:01:09.526Z,21.18
2022-09-11T12:02:09.380Z,21.26
2022-09-11T12:03:09.194Z,21.43
2022-09-11T12:04:09.187Z,21.53
2022-09-11T12:05:09.186Z,21.70
2022-09-11T12:06:09.118Z,21.83
2022-09-11T12:07:09.159Z,21.82
2022-09-11T12:08:09.112Z,21.74
2022-09-11T12:09:09.276Z,21.73
2022-09-11T12:10:09.088Z,21.71
2022-09-11T12:11:09.101Z,21.55
2022-09-11T12:12:09.077Z,21.30
2022-09-11T12:13:09.064Z,21.16
2022-09-11T12:14:09.044Z,21.18
2022-09-11T12:15:09.221Z,20.97
2022-09-11T12:16:11.286Z,20.90
2022-09-11T12:17:09.032Z,20.98
2022-09-11T12:18:09.006Z,21.01
2022-09-11T12:19:09.003Z,20.83
2022-09-11T12:20:09.006Z,20.72
2022-09-11T12:21:09.017Z,20.69
2022-09-11T12:22:08.978Z,20.71
2022-09-11T12:23:08.936Z,20.68
2022-09-11T12:24:09.005Z,20.58
2022-09-11T12:25:08.960Z,20.61
2022-09-11T12:26:08.956Z,20.63
2022-09-11T12:27:11.840Z,20.69
2022-09-11T12:28:08.872Z,20.73
2022-09-11T12:29:08.885Z,20.75
2022-09-11T12:30:08.922Z,20.63
2022-09-11T12:31:08.934Z,20.50
2022-09-11T12:32:08.846Z,20.46
2022-09-11T12:33:08.820Z,20.48
2022-09-11T12:34:08.817Z,20.50
2022-09-11T12:35:08.819Z,20.58
2022-09-11T12:36:08.832Z,20.61
2022-09-11T12:37:08.760Z,20.57
2022-09-11T12:38:08.788Z,20.31
2022-09-11T12:39:08.786Z,20.16
2022-09-11T12:40:08.809Z,20.10
2022-09-11T12:41:08.760Z,20.07
2022-09-11T12:42:08.754Z,20.12
2022-09-11T12:43:09.295Z,20.16
2022-09-11T12:44:08.683Z,20.19
2022-09-11T12:45:08.771Z,20.35
2022-09-11T12:46:08.706Z,20.68
2022-09-11T12:47:08.690Z,20.85
2022-09-11T12:48:08.676Z,21.06
2022-09-11T12:49:22.067Z,21.15
2022-09-11T12:50:08.757Z,21.31
2022-09-11T12:51:08.704Z,21.42
2022-09-11T12:52:08.775Z,21.58
2022-09-11T12:53:08.606Z,21.79
2022-09-11T12:54:08.668Z,21.96